createdAt,value
2023-05-12T00:00:15.574Z,101134.42
2023-05-12T00:03:08.858Z,101136.17
2023-05-12T00:05:41.189Z,101136.16
2023-05-12T00:08:13.679Z,101135.28
2023-05-12T00:10:46.366Z,101135.27
2023-05-12T00:13:18.844Z,101134.40
2023-05-12T00:15:51.475Z,101133.53
2023-05-12T00:18:23.928Z,101135.27
2023-05-12T00:20:56.525Z,101142.20
2023-05-12T00:23:29.032Z,101134.36
2023-05-12T00:26:01.708Z,101132.63
2023-05-12T00:28:36.623Z,101139.53
2023-05-12T00:31:09.565Z,101135.20
2023-05-12T00:33:42.209Z,101141.25
2023-05-12T00:36:14.741Z,101135.17
2023-05-12T00:38:47.179Z,101143.84
2023-05-12T00:41:19.873Z,101143.83
2023-05-12T00:43:52.595Z,101136.88
2023-05-12T00:46:25.090Z,101148.13
2023-05-12T00:48:57.510Z,101148.14
2023-05-12T00:51:31.149Z,101149.00
2023-05-12T00:54:03.929Z,101154.19
2023-05-12T00:56:39.550Z,101155.91
2023-05-12T00:59:13.776Z,101161.09
2023-05-12T01:01:47.933Z,101159.34
2023-05-12T01:04:21.161Z,101160.22
2023-05-12T01:06:59.519Z,101160.19
2023-05-12T01:09:31.772Z,101161.05
2023-05-12T01:12:04.856Z,101158.45
2023-05-12T01:14:40.102Z,101160.17
2023-05-12T01:17:15.366Z,101165.35
2023-05-12T01:19:51.524Z,101161.83
2023-05-12T01:22:26.097Z,101165.33
2023-05-12T01:25:01.292Z,101166.16
2023-05-12T01:27:40.609Z,101166.16
2023-05-12T01:30:19.159Z,101166.98
2023-05-12T01:32:52.396Z,101157.44
2023-05-12T01:35:25.310Z,101171.30
2023-05-12T01:38:05.404Z,101168.67
2023-05-12T01:40:41.457Z,101172.13
2023-05-12T01:43:16.501Z,101169.50
2023-05-12T01:45:49.187Z,101173.81
2023-05-12T01:48:21.405Z,101172.89
2023-05-12T01:50:54.722Z,101173.72
2023-05-12T01:53:27.146Z,101177.21
2023-05-12T01:55:59.650Z,101178.92
2023-05-12T01:58:32.761Z,101168.48
2023-05-12T02:01:06.845Z,101174.55
2023-05-12T02:03:40.039Z,101174.52
2023-05-12T02:06:17.199Z,101174.52
2023-05-12T02:08:50.027Z,101175.36
2023-05-12T02:11:23.016Z,101175.33
2023-05-12T02:13:55.200Z,101177.93
2023-05-12T02:16:29.474Z,101170.09
2023-05-12T02:19:01.870Z,101168.34
2023-05-12T02:21:35.051Z,101175.26
2023-05-12T02:24:09.295Z,101178.71
2023-05-12T02:26:41.723Z,101183.88
2023-05-12T02:29:14.672Z,101179.52
2023-05-12T02:31:47.107Z,101186.44
2023-05-12T02:34:21.555Z,101182.95
2023-05-12T02:36:54.391Z,101187.25
2023-05-12T02:39:26.674Z,101184.61
2023-05-12T02:41:58.924Z,101193.27
2023-05-12T02:44:33.721Z,101192.38
2023-05-12T02:47:07.172Z,101197.56
2023-05-12T02:49:41.944Z,101200.16
2023-05-12T02:52:14.699Z,101194.06
2023-05-12T02:54:46.939Z,101196.63
2023-05-12T02:57:19.166Z,101199.23
2023-05-12T02:59:51.444Z,101207.02
2023-05-12T03:02:23.949Z,101203.53
2023-05-12T03:04:56.554Z,101196.63
2023-05-12T03:07:29.422Z,101204.42
2023-05-12T03:10:02.957Z,101200.08
2023-05-12T03:12:37.364Z,101204.47
2023-05-12T03:15:13.909Z,101196.67
2023-05-12T03:17:46.464Z,101207.08
2023-05-12T03:20:19.977Z,101201.02
2023-05-12T03:22:53.279Z,101196.71
2023-05-12T03:25:25.873Z,101206.27
2023-05-12T03:27:59.360Z,101198.50
2023-05-12T03:30:33.242Z,101197.66
2023-05-12T03:33:05.589Z,101202.85
2023-05-12T03:35:43.812Z,101199.44
2023-05-12T03:38:16.584Z,101207.27
2023-05-12T03:40:52.928Z,101210.77
2023-05-12T03:43:26.097Z,101208.21
2023-05-12T03:46:02.121Z,101211.74
2023-05-12T03:48:38.483Z,101213.49
2023-05-12T03:51:12.433Z,101213.56
2023-05-12T03:53:46.455Z,101215.34
2023-05-12T03:56:18.811Z,101221.47
2023-05-12T03:58:51.240Z,101218.94
2023-05-12T04:01:23.579Z,101223.32
2023-05-12T04:03:56.003Z,101222.52
2023-05-12T04:06:28.430Z,101224.47
2023-05-12T04:09:01.533Z,101228.34
2023-05-12T04:11:35.638Z,101225.66
2023-05-12T04:14:08.714Z,101228.16
2023-05-12T04:16:42.560Z,101214.53
2023-05-12T04:19:15.101Z,101219.04
2023-05-12T04:21:48.042Z,101213.66
2023-05-12T04:24:20.476Z,101222.98
2023-05-12T04:26:52.779Z,101213.25
2023-05-12T04:29:25.707Z,101216.52
2023-05-12T04:32:00.308Z,101211.35
2023-05-12T04:34:32.719Z,101212.04
2023-05-12T04:37:05.095Z,101223.75
2023-05-12T04:39:38.268Z,101223.95
2023-05-12T04:42:11.025Z,101222.63
2023-05-12T04:44:46.296Z,101220.25
2023-05-12T04:47:19.326Z,101221.91
2023-05-12T04:49:52.016Z,101217.33
2023-05-12T04:52:25.984Z,101228.33
2023-05-12T04:54:58.894Z,101225.38
2023-05-12T04:57:31.617Z,101218.92
2023-05-12T05:00:06.317Z,101221.47
2023-05-12T05:02:40.510Z,101224.19
2023-05-12T05:05:13.261Z,101230.22
2023-05-12T05:07:45.664Z,101233.55
2023-05-12T05:10:18.845Z,101231.34
2023-05-12T05:12:51.366Z,101233.48
2023-05-12T05:15:26.403Z,101235.35
2023-05-12T05:18:02.187Z,101228.70
2023-05-12T05:20:40.715Z,101235.67
2023-05-12T05:23:15.895Z,101235.11
2023-05-12T05:25:48.477Z,101241.62
2023-05-12T05:28:20.833Z,101237.83
2023-05-12T05:30:53.797Z,101237.25
2023-05-12T05:33:26.224Z,101246.91
2023-05-12T05:35:58.631Z,101249.31
2023-05-12T05:38:30.902Z,101253.68
2023-05-12T05:41:03.868Z,101257.08
2023-05-12T05:43:40.756Z,101256.92
2023-05-12T05:46:12.450Z,101257.63
2023-05-12T05:48:45.223Z,101258.16
2023-05-12T05:51:17.621Z,101252.53
2023-05-12T05:53:52.879Z,101254.80
2023-05-12T05:56:25.312Z,101249.77
2023-05-12T05:59:02.705Z,101264.19
2023-05-12T06:01:39.780Z,101262.20
2023-05-12T06:04:12.335Z,101260.18
2023-05-12T06:06:45.481Z,101267.17
2023-05-12T06:09:17.842Z,101258.83
2023-05-12T06:11:50.567Z,101264.13
2023-05-12T06:14:22.893Z,101273.97
2023-05-12T06:16:55.351Z,101272.89
2023-05-12T06:19:29.580Z,101276.63
2023-05-12T06:22:00.946Z,101274.41
2023-05-12T06:24:33.127Z,101275.78
2023-05-12T06:27:05.404Z,101273.86
2023-05-12T06:29:38.327Z,101274.34
2023-05-12T06:32:11.995Z,101275.06
2023-05-12T06:34:44.264Z,101276.01
2023-05-12T06:37:16.776Z,101285.42
2023-05-12T06:39:48.979Z,101279.76
2023-05-12T06:42:21.997Z,101287.06
2023-05-12T06:44:57.101Z,101282.99
2023-05-12T06:47:30.096Z,101288.11
2023-05-12T06:50:02.987Z,101281.80
2023-05-12T06:52:36.852Z,101287.48
2023-05-12T06:55:09.983Z,101283.57
2023-05-12T06:57:43.083Z,101281.45
2023-05-12T07:00:19.737Z,101284.98
2023-05-12T07:02:52.226Z,101280.19
2023-05-12T07:05:25.266Z,101286.61
2023-05-12T07:07:58.044Z,101281.27
2023-05-12T07:10:30.277Z,101285.58
2023-05-12T07:13:02.588Z,101280.09
2023-05-12T07:15:35.074Z,101281.06
2023-05-12T07:18:09.452Z,101282.60
2023-05-12T07:20:41.825Z,101286.91
2023-05-12T07:23:14.534Z,101273.21
2023-05-12T07:25:46.857Z,101283.48
2023-05-12T07:28:22.259Z,101287.86
2023-05-12T07:30:54.545Z,101285.22
2023-05-12T07:33:26.931Z,101276.23
2023-05-12T07:35:59.129Z,101285.05
2023-05-12T07:38:32.117Z,101286.81
2023-05-12T07:41:05.344Z,101283.85
2023-05-12T07:43:40.371Z,101279.80
2023-05-12T07:46:13.766Z,101278.92
2023-05-12T07:48:46.199Z,101281.44
2023-05-12T07:51:18.585Z,101278.11
2023-05-12T07:53:50.962Z,101287.02
2023-05-12T07:56:23.321Z,101280.45
2023-05-12T07:58:56.568Z,101285.38
2023-05-12T08:01:28.860Z,101282.50
2023-05-12T08:04:01.432Z,101285.25
2023-05-12T08:06:34.036Z,101279.11
2023-05-12T08:09:07.105Z,101288.51
2023-05-12T08:11:45.447Z,101280.44
2023-05-12T08:14:19.153Z,101297.13
2023-05-12T08:16:51.491Z,101282.00
2023-05-12T08:19:24.137Z,101273.55
2023-05-12T08:21:56.468Z,101291.16
2023-05-12T08:24:29.064Z,101286.55
2023-05-12T08:27:01.464Z,101288.23
2023-05-12T08:29:34.094Z,101274.02
2023-05-12T08:32:07.369Z,101279.21
2023-05-12T08:34:42.609Z,101277.48
2023-05-12T08:37:14.968Z,101285.45
2023-05-12T08:39:47.385Z,101289.56
2023-05-12T08:42:32.043Z,101291.02
2023-05-12T08:45:06.756Z,101290.48
2023-05-12T08:47:41.880Z,101289.03
2023-05-12T08:50:18.619Z,101276.72
2023-05-12T08:52:51.994Z,101287.33
2023-05-12T08:55:29.592Z,101281.61
2023-05-12T08:58:05.485Z,101275.30
2023-05-12T09:00:40.583Z,101280.06
2023-05-12T09:03:15.872Z,101261.08
2023-05-12T09:05:48.876Z,101280.38
2023-05-12T09:08:21.431Z,101280.81
2023-05-12T09:10:56.305Z,101267.84
2023-05-12T09:13:37.804Z,101271.19
2023-05-12T09:16:13.535Z,101276.76
2023-05-12T09:18:52.252Z,101276.58
2023-05-12T09:21:25.040Z,101279.39
2023-05-12T09:24:00.052Z,101269.67
2023-05-12T09:26:37.122Z,101266.98
2023-05-12T09:29:15.801Z,101269.80
2023-05-12T09:31:54.638Z,101262.38
2023-05-12T09:34:32.245Z,101268.13
2023-05-12T09:37:06.832Z,101274.86
2023-05-12T09:39:39.781Z,101262.84
2023-05-12T09:42:16.295Z,101258.97
2023-05-12T09:44:49.899Z,101252.67
2023-05-12T09:47:22.278Z,101263.39
2023-05-12T09:49:57.820Z,101259.82
2023-05-12T09:52:30.359Z,101261.95
2023-05-12T09:55:10.902Z,101252.62
2023-05-12T09:57:44.886Z,101253.69
2023-05-12T10:00:34.596Z,101258.86
2023-05-12T10:03:13.069Z,101255.88
2023-05-12T10:05:51.873Z,101257.91
2023-05-12T10:08:28.684Z,101258.08
2023-05-12T10:11:03.588Z,101246.81
2023-05-12T10:13:37.196Z,101248.33
2023-05-12T10:16:14.160Z,101255.11
2023-05-12T10:18:48.010Z,101247.72
2023-05-12T10:21:23.016Z,101238.47
2023-05-12T10:23:57.997Z,101247.63
2023-05-12T10:26:31.036Z,101245.23
2023-05-12T10:29:03.813Z,101243.04
2023-05-12T10:31:40.049Z,101250.01
2023-05-12T10:34:19.996Z,101241.70
2023-05-12T10:36:54.398Z,101245.42
2023-05-12T10:39:33.136Z,101258.67
2023-05-12T10:42:09.763Z,101232.08
2023-05-12T10:44:54.087Z,101238.45
2023-05-12T10:47:41.743Z,101235.59
2023-05-12T10:50:15.275Z,101235.59
2023-05-12T10:52:57.698Z,101243.59
2023-05-12T10:55:40.013Z,101246.17
2023-05-12T10:58:14.773Z,101238.70
2023-05-12T11:00:51.798Z,101236.14
2023-05-12T11:03:28.734Z,101232.28
2023-05-12T11:08:55.398Z,101242.25
2023-05-12T11:11:29.836Z,101237.02
2023-05-12T11:14:03.389Z,101238.61
2023-05-12T11:16:38.049Z,101225.00
2023-05-12T11:19:10.873Z,101236.39
2023-05-12T11:21:43.821Z,101239.23
2023-05-12T11:24:16.798Z,101223.22
2023-05-12T11:26:52.012Z,101217.84
2023-05-12T11:29:24.427Z,101225.19
2023-05-12T11:31:57.455Z,101230.95
2023-05-12T11:34:30.334Z,101236.56
2023-05-12T11:37:02.748Z,101227.33
2023-05-12T11:39:35.411Z,101218.16
2023-05-12T11:42:13.236Z,101231.75
2023-05-12T11:44:51.505Z,101226.41
2023-05-12T11:47:23.740Z,101222.30
2023-05-12T11:49:56.749Z,101229.46
2023-05-12T11:52:30.107Z,101218.06
2023-05-12T11:55:06.279Z,101217.62
2023-05-12T11:57:40.758Z,101225.84
2023-05-12T12:00:17.361Z,101215.95
2023-05-12T12:02:50.537Z,101210.88
2023-05-12T12:05:23.005Z,101218.64
2023-05-12T12:08:05.417Z,101216.15
2023-05-12T12:10:40.240Z,101229.91
2023-05-12T12:13:12.555Z,101222.86
2023-05-12T12:15:44.765Z,101214.41
2023-05-12T12:18:17.709Z,101213.14
2023-05-12T12:20:50.385Z,101208.75
2023-05-12T12:23:22.622Z,101209.87
2023-05-12T12:25:54.986Z,101214.00
2023-05-12T12:28:27.161Z,101208.25
2023-05-12T12:31:00.095Z,101213.47
2023-05-12T12:33:32.498Z,101214.25
2023-05-12T12:36:05.107Z,101209.80
2023-05-12T12:38:40.257Z,101207.88
2023-05-12T12:41:12.814Z,101209.71
2023-05-12T12:43:45.816Z,101221.16
2023-05-12T12:46:18.292Z,101212.27
2023-05-12T12:48:50.679Z,101202.14
2023-05-12T12:51:24.328Z,101194.84
2023-05-12T12:53:56.834Z,101199.91
2023-05-12T12:56:29.163Z,101203.08
2023-05-12T12:59:01.904Z,101202.56
2023-05-12T13:01:38.899Z,101194.73
2023-05-12T13:04:11.301Z,101193.02
2023-05-12T13:06:43.512Z,101192.59
2023-05-12T13:09:18.125Z,101184.17
2023-05-12T13:11:52.043Z,101181.61
2023-05-12T13:14:24.526Z,101190.02
2023-05-12T13:16:57.003Z,101180.21
2023-05-12T13:19:31.773Z,101173.09
2023-05-12T13:22:04.175Z,101175.09
2023-05-12T13:24:37.228Z,101174.37
2023-05-12T13:27:10.022Z,101174.47
2023-05-12T13:29:42.463Z,101182.45
2023-05-12T13:32:15.219Z,101171.47
2023-05-12T13:34:47.628Z,101163.18
2023-05-12T13:37:20.488Z,101156.44
2023-05-12T13:39:52.714Z,101168.87
2023-05-12T13:42:25.020Z,101164.59
2023-05-12T13:44:57.708Z,101160.47
2023-05-12T13:47:29.906Z,101169.76
2023-05-12T13:50:02.303Z,101161.92
2023-05-12T13:52:37.078Z,101161.41
2023-05-12T13:55:14.630Z,101157.64
2023-05-12T13:57:53.093Z,101159.78
2023-05-12T14:00:27.371Z,101158.84
2023-05-12T14:02:59.781Z,101160.20
2023-05-12T14:05:32.657Z,101150.05
2023-05-12T14:08:05.312Z,101158.05
2023-05-12T14:10:38.010Z,101150.39
2023-05-12T14:13:10.366Z,101158.01
2023-05-12T14:15:49.162Z,101163.27
2023-05-12T14:18:22.535Z,101150.95
2023-05-12T14:20:54.928Z,101174.68
2023-05-12T14:23:27.378Z,101157.36
2023-05-12T14:25:59.645Z,101165.53
2023-05-12T14:28:32.104Z,101159.69
2023-05-12T14:31:04.630Z,101160.42
2023-05-12T14:33:39.842Z,101167.70
2023-05-12T14:36:14.442Z,101156.64
2023-05-12T14:38:46.996Z,101160.88
2023-05-12T14:41:19.278Z,101167.70
2023-05-12T14:43:51.632Z,101162.44
2023-05-12T14:46:25.201Z,101147.42
2023-05-12T14:48:55.951Z,101159.93
2023-05-12T14:51:28.202Z,101158.26
2023-05-12T14:54:00.780Z,101161.38
2023-05-12T14:56:35.728Z,101159.27
2023-05-12T14:59:11.376Z,101151.52
2023-05-12T15:01:44.353Z,101153.61
2023-05-12T15:04:18.195Z,101160.34
2023-05-12T15:06:50.768Z,101161.36
2023-05-12T15:09:23.211Z,101154.91
2023-05-12T15:11:55.507Z,101147.42
2023-05-12T15:14:27.859Z,101152.68
2023-05-12T15:17:00.177Z,101157.86
2023-05-12T15:19:32.710Z,101160.78
2023-05-12T15:22:05.037Z,101157.50
2023-05-12T15:24:39.020Z,101157.64
2023-05-12T15:27:11.428Z,101153.92
2023-05-12T15:29:44.252Z,101156.92
2023-05-12T15:32:16.490Z,101155.89
2023-05-12T15:34:49.102Z,101154.16
2023-05-12T15:37:21.476Z,101156.15
2023-05-12T15:39:53.804Z,101152.44
2023-05-12T15:42:30.099Z,101150.50
2023-05-12T15:45:12.200Z,101146.71
2023-05-12T15:47:47.292Z,101155.39
2023-05-12T15:50:23.219Z,101156.31
2023-05-12T15:52:55.887Z,101157.17
2023-05-12T15:55:28.260Z,101164.34
2023-05-12T15:58:01.401Z,101162.49
2023-05-12T16:00:34.038Z,101160.12
2023-05-12T16:03:07.271Z,101145.53
2023-05-12T16:05:42.064Z,101154.80
2023-05-12T16:08:14.427Z,101157.80
2023-05-12T16:10:47.150Z,101154.54
2023-05-12T16:13:19.431Z,101150.20
2023-05-12T16:15:53.690Z,101152.23
2023-05-12T16:18:26.694Z,101142.90
2023-05-12T16:20:59.472Z,101152.98
2023-05-12T16:23:32.048Z,101150.75
2023-05-12T16:26:05.639Z,101152.73
2023-05-12T16:28:40.732Z,101154.45
2023-05-12T16:31:18.163Z,101150.93
2023-05-12T16:33:50.814Z,101150.82
2023-05-12T16:36:24.416Z,101149.02
2023-05-12T16:38:56.926Z,101147.33
2023-05-12T16:41:29.341Z,101154.45
2023-05-12T16:44:02.015Z,101150.30
2023-05-12T16:46:40.803Z,101145.19
2023-05-12T16:49:14.593Z,101153.42
2023-05-12T16:51:47.581Z,101159.81
2023-05-12T16:54:20.088Z,101154.59
2023-05-12T16:56:53.259Z,101159.20
2023-05-12T16:59:25.760Z,101159.42
2023-05-12T17:01:58.420Z,101160.58
2023-05-12T17:04:30.960Z,101164.31
2023-05-12T17:07:06.106Z,101168.05
2023-05-12T17:09:40.172Z,101162.08
2023-05-12T17:12:14.367Z,101164.14
2023-05-12T17:14:59.364Z,101164.24
2023-05-12T17:17:39.648Z,101161.87
2023-05-12T17:20:14.010Z,101161.28
2023-05-12T17:22:50.555Z,101167.67
2023-05-12T17:25:23.522Z,101166.17
2023-05-12T17:27:56.259Z,101169.95
2023-05-12T17:30:28.996Z,101163.20
2023-05-12T17:33:01.916Z,101166.09
2023-05-12T17:35:37.351Z,101170.70
2023-05-12T17:38:09.836Z,101185.86
2023-05-12T17:40:43.341Z,101175.50
2023-05-12T17:43:16.190Z,101174.92
2023-05-12T17:45:48.914Z,101182.23
2023-05-12T17:48:21.240Z,101176.36
2023-05-12T17:50:54.400Z,101178.47
2023-05-12T17:53:26.965Z,101183.21
2023-05-12T17:55:59.671Z,101182.66
2023-05-12T17:58:32.329Z,101193.61
2023-05-12T18:01:07.665Z,101189.59
2023-05-12T18:03:40.886Z,101189.14
2023-05-12T18:06:16.096Z,101194.03
2023-05-12T18:08:48.563Z,101189.20
2023-05-12T18:11:21.175Z,101194.79
2023-05-12T18:13:54.088Z,101203.97
2023-05-12T18:16:29.333Z,101203.52
2023-05-12T18:19:02.851Z,101199.67
2023-05-12T18:21:37.267Z,101208.06
2023-05-12T18:24:10.880Z,101215.64
2023-05-12T18:26:43.424Z,101210.86
2023-05-12T18:29:17.509Z,101219.03
2023-05-12T18:31:50.151Z,101219.30
2023-05-12T18:34:23.056Z,101219.66
2023-05-12T18:36:56.106Z,101217.40
2023-05-12T18:39:29.049Z,101222.92
2023-05-12T18:42:01.464Z,101226.66
2023-05-12T18:44:34.228Z,101229.50
2023-05-12T18:47:09.363Z,101234.10
2023-05-12T18:49:42.431Z,101233.37
2023-05-12T18:52:14.778Z,101234.45
2023-05-12T18:54:49.410Z,101231.94
2023-05-12T18:57:22.689Z,101233.83
2023-05-12T18:59:55.285Z,101235.64
2023-05-12T19:02:27.783Z,101234.87
2023-05-12T19:05:03.678Z,101230.59
2023-05-12T19:07:39.458Z,101239.41
2023-05-12T19:10:12.588Z,101243.81
2023-05-12T19:12:44.821Z,101245.65
2023-05-12T19:15:17.935Z,101237.05
2023-05-12T19:17:50.691Z,101242.41
2023-05-12T19:20:23.223Z,101246.88
2023-05-12T19:22:55.560Z,101244.38
2023-05-12T19:25:27.869Z,101250.55
2023-05-12T19:28:00.414Z,101247.14
2023-05-12T19:30:33.675Z,101251.53
2023-05-12T19:33:08.712Z,101251.56
2023-05-12T19:35:41.986Z,101247.26
2023-05-12T19:38:14.303Z,101252.55
2023-05-12T19:40:46.756Z,101254.33
2023-05-12T19:43:19.153Z,101255.24
2023-05-12T19:46:00.067Z,101255.28
2023-05-12T19:48:42.263Z,101256.17
2023-05-12T19:51:14.921Z,101255.31
2023-05-12T19:53:47.289Z,101256.20
2023-05-12T19:56:20.908Z,101254.48
2023-05-12T19:58:56.513Z,101260.59
2023-05-12T20:01:29.585Z,101252.75
2023-05-12T20:04:03.305Z,101260.60
2023-05-12T20:06:36.266Z,101265.84
2023-05-12T20:09:08.648Z,101262.35
2023-05-12T20:11:44.911Z,101263.22
2023-05-12T20:14:17.277Z,101259.74
2023-05-12T20:16:49.676Z,101258.88
2023-05-12T20:19:22.096Z,101269.34
2023-05-12T20:21:54.318Z,101261.48
2023-05-12T20:24:26.915Z,101263.23
2023-05-12T20:26:59.364Z,101263.23
2023-05-12T20:29:32.059Z,101262.33
2023-05-12T20:32:04.562Z,101261.45
2023-05-12T20:34:39.723Z,101264.05
2023-05-12T20:37:12.087Z,101264.05
2023-05-12T20:39:44.411Z,101254.47
2023-05-12T20:42:16.904Z,101259.67
2023-05-12T20:44:49.189Z,101259.65
2023-05-12T20:47:21.668Z,101254.43
2023-05-12T20:49:58.877Z,101267.45
2023-05-12T20:52:31.384Z,101256.15
2023-05-12T20:55:07.260Z,101268.30
2023-05-12T20:57:42.101Z,101260.46
2023-05-12T21:00:17.388Z,101263.91
2023-05-12T21:02:52.494Z,101274.36
2023-05-12T21:05:25.828Z,101272.59
2023-05-12T21:07:58.074Z,101267.36
2023-05-12T21:10:32.304Z,101266.45
2023-05-12T21:13:02.866Z,101276.01
2023-05-12T21:15:35.273Z,101271.63
2023-05-12T21:18:09.164Z,101273.36
2023-05-12T21:20:43.422Z,101273.36
2023-05-12T21:23:15.286Z,101270.75
2023-05-12T21:25:50.272Z,101275.09
2023-05-12T21:28:23.014Z,101275.92
2023-05-12T21:30:55.474Z,101279.39
2023-05-12T21:33:28.090Z,101275.90
2023-05-12T21:36:01.526Z,101274.16
2023-05-12T21:38:35.262Z,101275.02
2023-05-12T21:41:08.558Z,101274.99
2023-05-12T21:43:40.833Z,101283.67
2023-05-12T21:46:13.119Z,101284.53
2023-05-12T21:48:46.242Z,101285.36
2023-05-12T21:51:19.222Z,101284.47
2023-05-12T21:53:51.551Z,101284.47
2023-05-12T21:56:24.640Z,101290.55
2023-05-12T21:58:57.215Z,101286.16
2023-05-12T22:01:30.123Z,101286.17
2023-05-12T22:04:23.785Z,101281.78
2023-05-12T22:06:56.718Z,101289.59
2023-05-12T22:09:31.118Z,101285.25
2023-05-12T22:12:03.756Z,101286.11
2023-05-12T22:14:37.677Z,101280.87
2023-05-12T22:17:10.214Z,101284.33
2023-05-12T22:19:42.625Z,101279.09
2023-05-12T22:22:15.080Z,101283.44
2023-05-12T22:24:48.345Z,101279.06
2023-05-12T22:27:22.788Z,101275.60
2023-05-12T22:29:56.999Z,101280.81
2023-05-12T22:32:27.728Z,101275.56
2023-05-12T22:35:00.674Z,101279.89
2023-05-12T22:37:39.301Z,101283.34
2023-05-12T22:40:14.257Z,101279.85
2023-05-12T22:42:46.883Z,101287.59
2023-05-12T22:45:19.425Z,101290.20
2023-05-12T22:47:52.754Z,101287.55
2023-05-12T22:50:25.971Z,101283.14
2023-05-12T22:52:58.471Z,101274.36
2023-05-12T22:55:31.722Z,101290.83
2023-05-12T22:58:04.072Z,101282.13
2023-05-12T23:00:38.129Z,101278.59
2023-05-12T23:03:10.585Z,101281.16
2023-05-12T23:05:44.461Z,101281.11
2023-05-12T23:08:17.138Z,101274.98
2023-05-12T23:10:49.261Z,101280.98
2023-05-12T23:13:21.564Z,101285.33
2023-05-12T23:15:55.821Z,101287.03
2023-05-12T23:18:31.322Z,101289.59
2023-05-12T23:21:03.665Z,101288.73
2023-05-12T23:23:40.220Z,101290.44
2023-05-12T23:26:14.122Z,101290.44
2023-05-12T23:28:46.400Z,101284.39
2023-05-12T23:31:18.681Z,101293.05
2023-05-12T23:33:51.133Z,101287.84
2023-05-12T23:36:23.533Z,101280.94
2023-05-12T23:38:56.642Z,101283.55
2023-05-12T23:41:31.793Z,101283.55
2023-05-12T23:44:04.053Z,101279.23
2023-05-12T23:46:36.706Z,101277.48
2023-05-12T23:49:09.581Z,101278.38
2023-05-12T23:51:44.591Z,101280.08
2023-05-12T23:54:16.925Z,101274.84
2023-05-12T23:56:50.729Z,101275.64
2023-05-12T23:59:23.015Z,101274.66
